Главная страница
METAR-TAF:

METAR-TAF

Аэропорты :

Киль, Германия

широта: 54-23N, долгота: 010-10E, высота над уровнем моря: 31 м

Текущие метеонаблюдения

Эта сводка был подготовлена 12 часа и 31 минут назад, в 14:50 UTC
Ветер 3 Узел переменных направлений
Температура 22°C
Влажность 57%
Давление 1018 hPa
Видимость 10 км и более
Нет облачности ниже 1500 м, и нет кучево-дождевой облачности

METAR: EDHK 171450Z VRB03KT CAVOK 22/13 Q1018

Время: 05:21 (03:21 UTC)

Прогноз

Эта сводка был подготовлена 13 часа и 21 минут назад, в 14:00 UTC
Прогноз действительный с 17-го 15 UTC до 17-го 18 UTC
Ветер 3 Узел от западный
Видимость 10 км и более
Нет облачности ниже 1500 м, и нет кучево-дождевой облачности

TAF: EDHK 171400Z 1715/1718 27003KT CAVOK

Метеонаблюдения и прогнозы для более 4000 аэропортов (сводки METAR и TAF).

Имеющиеся станции представлены на карте желтыми и красными точками.

Чтобы увидеть название станции, наведите на нее мышь.

Затем щелкните, чтобы увидеть метеонаблюдения и метеопрогнозы.

Управление картой: чтобы увеличить масштаб, щелкните зеленые кнопки с черным крестиком; чтобы уменьшить масштаб, щелкните зеленую кнопку с тире; для просмотра соседних карт щелкайте зеленые стрелки.


METAR-TAF: